sensor_id;sensor_type;location;lat;lon;timestamp;P1;durP1;ratioP1;P2;durP2;ratioP2
14688;SDS011;7432;48.728;9.154;2023-07-20T00:00:53;7.73;;;7.13;;
14688;SDS011;7432;48.728;9.154;2023-07-20T00:03:19;7.30;;;6.83;;
14688;SDS011;7432;48.728;9.154;2023-07-20T00:05:50;7.47;;;6.97;;
14688;SDS011;7432;48.728;9.154;2023-07-20T00:08:16;7.50;;;6.90;;
14688;SDS011;7432;48.728;9.154;2023-07-20T00:10:44;6.97;;;6.50;;
14688;SDS011;7432;48.728;9.154;2023-07-20T00:13:11;7.60;;;7.00;;
14688;SDS011;7432;48.728;9.154;2023-07-20T00:15:38;7.20;;;6.70;;
14688;SDS011;7432;48.728;9.154;2023-07-20T00:18:05;7.07;;;6.57;;
14688;SDS011;7432;48.728;9.154;2023-07-20T00:20:31;7.13;;;6.63;;
14688;SDS011;7432;48.728;9.154;2023-07-20T00:22:57;7.47;;;6.90;;
14688;SDS011;7432;48.728;9.154;2023-07-20T00:25:24;7.90;;;7.30;;
14688;SDS011;7432;48.728;9.154;2023-07-20T00:27:52;7.43;;;6.83;;
14688;SDS011;7432;48.728;9.154;2023-07-20T00:30:19;7.27;;;6.67;;
14688;SDS011;7432;48.728;9.154;2023-07-20T00:32:45;6.77;;;6.30;;
14688;SDS011;7432;48.728;9.154;2023-07-20T00:35:12;7.13;;;6.47;;
14688;SDS011;7432;48.728;9.154;2023-07-20T00:37:39;7.00;;;6.50;;
14688;SDS011;7432;48.728;9.154;2023-07-20T00:40:06;7.13;;;6.57;;
14688;SDS011;7432;48.728;9.154;2023-07-20T00:42:33;7.30;;;6.70;;
14688;SDS011;7432;48.728;9.154;2023-07-20T00:45:01;6.80;;;6.30;;
14688;SDS011;7432;48.728;9.154;2023-07-20T00:47:27;7.10;;;6.60;;
14688;SDS011;7432;48.728;9.154;2023-07-20T00:49:54;7.70;;;7.07;;
14688;SDS011;7432;48.728;9.154;2023-07-20T00:52:21;7.23;;;6.73;;
14688;SDS011;7432;48.728;9.154;2023-07-20T00:54:49;6.90;;;6.40;;
14688;SDS011;7432;48.728;9.154;2023-07-20T00:57:16;6.83;;;6.33;;
14688;SDS011;7432;48.728;9.154;2023-07-20T00:59:45;7.20;;;6.60;;
14688;SDS011;7432;48.728;9.154;2023-07-20T01:02:12;6.77;;;6.27;;
14688;SDS011;7432;48.728;9.154;2023-07-20T01:04:39;7.00;;;6.60;;
14688;SDS011;7432;48.728;9.154;2023-07-20T01:07:07;6.90;;;6.50;;
14688;SDS011;7432;48.728;9.154;2023-07-20T01:09:39;7.27;;;6.77;;
14688;SDS011;7432;48.728;9.154;2023-07-20T01:12:16;7.30;;;6.80;;
14688;SDS011;7432;48.728;9.154;2023-07-20T01:14:46;7.50;;;6.90;;
14688;SDS011;7432;48.728;9.154;2023-07-20T01:17:14;7.03;;;6.43;;
14688;SDS011;7432;48.728;9.154;2023-07-20T01:19:41;7.50;;;6.90;;
14688;SDS011;7432;48.728;9.154;2023-07-20T01:22:09;7.17;;;6.63;;
14688;SDS011;7432;48.728;9.154;2023-07-20T01:30:55;7.60;;;7.00;;
14688;SDS011;7432;48.728;9.154;2023-07-20T01:33:29;7.30;;;6.73;;
14688;SDS011;7432;48.728;9.154;2023-07-20T01:35:59;7.20;;;6.60;;
14688;SDS011;7432;48.728;9.154;2023-07-20T01:38:27;8.40;;;7.20;;
14688;SDS011;7432;48.728;9.154;2023-07-20T01:40:54;7.53;;;7.03;;
14688;SDS011;7432;48.728;9.154;2023-07-20T01:43:21;7.03;;;6.53;;
14688;SDS011;7432;48.728;9.154;2023-07-20T01:45:48;7.07;;;6.60;;
14688;SDS011;7432;48.728;9.154;2023-07-20T01:48:14;7.37;;;6.77;;
14688;SDS011;7432;48.728;9.154;2023-07-20T01:50:42;6.53;;;6.13;;
14688;SDS011;7432;48.728;9.154;2023-07-20T01:53:09;7.30;;;6.70;;
14688;SDS011;7432;48.728;9.154;2023-07-20T01:55:36;6.77;;;6.37;;
14688;SDS011;7432;48.728;9.154;2023-07-20T01:58:02;7.47;;;6.97;;
14688;SDS011;7432;48.728;9.154;2023-07-20T02:00:29;7.13;;;6.53;;
14688;SDS011;7432;48.728;9.154;2023-07-20T02:02:56;6.77;;;6.20;;
14688;SDS011;7432;48.728;9.154;2023-07-20T02:05:22;7.80;;;7.17;;
14688;SDS011;7432;48.728;9.154;2023-07-20T02:07:50;7.10;;;6.70;;
14688;SDS011;7432;48.728;9.154;2023-07-20T02:10:17;8.13;;;7.33;;
14688;SDS011;7432;48.728;9.154;2023-07-20T02:12:43;7.20;;;6.70;;
14688;SDS011;7432;48.728;9.154;2023-07-20T02:15:10;7.47;;;6.93;;
14688;SDS011;7432;48.728;9.154;2023-07-20T02:17:38;6.97;;;6.40;;
14688;SDS011;7432;48.728;9.154;2023-07-20T02:20:06;7.50;;;6.93;;
14688;SDS011;7432;48.728;9.154;2023-07-20T02:22:34;7.17;;;6.67;;
14688;SDS011;7432;48.728;9.154;2023-07-20T02:25:02;7.23;;;6.80;;
14688;SDS011;7432;48.728;9.154;2023-07-20T02:27:29;7.03;;;6.53;;
14688;SDS011;7432;48.728;9.154;2023-07-20T02:29:56;7.43;;;6.83;;
14688;SDS011;7432;48.728;9.154;2023-07-20T02:32:22;7.20;;;6.67;;
14688;SDS011;7432;48.728;9.154;2023-07-20T02:34:49;7.40;;;6.83;;
14688;SDS011;7432;48.728;9.154;2023-07-20T02:37:16;7.17;;;6.67;;
14688;SDS011;7432;48.728;9.154;2023-07-20T02:39:42;6.77;;;6.37;;
14688;SDS011;7432;48.728;9.154;2023-07-20T02:42:10;6.80;;;6.30;;
14688;SDS011;7432;48.728;9.154;2023-07-20T02:44:36;7.10;;;6.50;;
14688;SDS011;7432;48.728;9.154;2023-07-20T02:47:03;6.87;;;6.37;;
14688;SDS011;7432;48.728;9.154;2023-07-20T02:49:29;7.27;;;6.67;;
14688;SDS011;7432;48.728;9.154;2023-07-20T02:51:56;7.47;;;6.90;;
14688;SDS011;7432;48.728;9.154;2023-07-20T02:54:22;7.77;;;6.90;;
14688;SDS011;7432;48.728;9.154;2023-07-20T02:56:48;7.67;;;7.10;;
14688;SDS011;7432;48.728;9.154;2023-07-20T02:59:16;7.70;;;7.20;;
14688;SDS011;7432;48.728;9.154;2023-07-20T03:01:43;7.60;;;7.10;;
14688;SDS011;7432;48.728;9.154;2023-07-20T03:04:09;7.43;;;6.93;;
14688;SDS011;7432;48.728;9.154;2023-07-20T03:06:36;7.73;;;7.13;;
14688;SDS011;7432;48.728;9.154;2023-07-20T03:09:03;7.60;;;6.93;;
14688;SDS011;7432;48.728;9.154;2023-07-20T03:11:30;8.27;;;7.67;;
14688;SDS011;7432;48.728;9.154;2023-07-20T03:13:58;7.70;;;7.00;;
14688;SDS011;7432;48.728;9.154;2023-07-20T03:16:26;7.97;;;7.37;;
14688;SDS011;7432;48.728;9.154;2023-07-20T03:18:52;7.87;;;7.17;;
14688;SDS011;7432;48.728;9.154;2023-07-20T03:21:19;6.80;;;6.30;;
14688;SDS011;7432;48.728;9.154;2023-07-20T03:23:45;6.97;;;6.40;;
14688;SDS011;7432;48.728;9.154;2023-07-20T03:26:12;7.50;;;6.97;;
14688;SDS011;7432;48.728;9.154;2023-07-20T03:28:38;7.43;;;6.93;;
14688;SDS011;7432;48.728;9.154;2023-07-20T03:31:05;8.00;;;7.40;;
14688;SDS011;7432;48.728;9.154;2023-07-20T03:33:33;8.30;;;7.70;;
14688;SDS011;7432;48.728;9.154;2023-07-20T03:36:00;8.17;;;7.47;;
14688;SDS011;7432;48.728;9.154;2023-07-20T03:38:27;7.40;;;6.87;;
14688;SDS011;7432;48.728;9.154;2023-07-20T03:40:54;8.27;;;7.77;;
14688;SDS011;7432;48.728;9.154;2023-07-20T03:43:21;7.20;;;6.80;;
14688;SDS011;7432;48.728;9.154;2023-07-20T03:45:48;8.00;;;7.40;;
14688;SDS011;7432;48.728;9.154;2023-07-20T03:48:15;7.33;;;6.73;;
14688;SDS011;7432;48.728;9.154;2023-07-20T03:50:44;8.00;;;7.50;;
14688;SDS011;7432;48.728;9.154;2023-07-20T03:53:11;8.13;;;7.57;;
14688;SDS011;7432;48.728;9.154;2023-07-20T03:55:37;7.93;;;7.30;;
14688;SDS011;7432;48.728;9.154;2023-07-20T03:58:05;7.70;;;7.20;;
14688;SDS011;7432;48.728;9.154;2023-07-20T04:00:32;7.03;;;6.63;;
14688;SDS011;7432;48.728;9.154;2023-07-20T04:02:58;7.47;;;6.97;;
14688;SDS011;7432;48.728;9.154;2023-07-20T04:05:25;7.80;;;7.20;;
14688;SDS011;7432;48.728;9.154;2023-07-20T04:07:53;7.60;;;7.00;;
14688;SDS011;7432;48.728;9.154;2023-07-20T04:10:19;7.30;;;6.90;;
14688;SDS011;7432;48.728;9.154;2023-07-20T04:12:45;7.27;;;6.77;;
14688;SDS011;7432;48.728;9.154;2023-07-20T04:15:12;7.90;;;7.30;;
14688;SDS011;7432;48.728;9.154;2023-07-20T04:17:39;8.27;;;7.73;;
14688;SDS011;7432;48.728;9.154;2023-07-20T04:20:06;7.83;;;7.33;;
14688;SDS011;7432;48.728;9.154;2023-07-20T04:22:34;7.33;;;6.80;;
14688;SDS011;7432;48.728;9.154;2023-07-20T04:25:02;8.13;;;7.53;;
14688;SDS011;7432;48.728;9.154;2023-07-20T04:27:28;7.80;;;7.27;;
14688;SDS011;7432;48.728;9.154;2023-07-20T04:29:55;7.87;;;7.27;;
14688;SDS011;7432;48.728;9.154;2023-07-20T04:32:21;8.67;;;7.97;;
14688;SDS011;7432;48.728;9.154;2023-07-20T04:34:48;7.67;;;7.17;;
14688;SDS011;7432;48.728;9.154;2023-07-20T04:37:14;7.53;;;7.00;;
14688;SDS011;7432;48.728;9.154;2023-07-20T04:39:41;7.87;;;7.17;;
14688;SDS011;7432;48.728;9.154;2023-07-20T04:42:08;7.50;;;7.00;;
14688;SDS011;7432;48.728;9.154;2023-07-20T04:44:35;7.30;;;6.80;;
14688;SDS011;7432;48.728;9.154;2023-07-20T04:47:01;7.90;;;7.37;;
14688;SDS011;7432;48.728;9.154;2023-07-20T04:49:28;8.10;;;7.50;;
14688;SDS011;7432;48.728;9.154;2023-07-20T04:51:54;8.10;;;7.50;;
14688;SDS011;7432;48.728;9.154;2023-07-20T04:54:21;8.00;;;7.40;;
14688;SDS011;7432;48.728;9.154;2023-07-20T04:56:47;7.60;;;7.10;;
14688;SDS011;7432;48.728;9.154;2023-07-20T04:59:15;8.30;;;7.70;;
14688;SDS011;7432;48.728;9.154;2023-07-20T05:01:41;7.87;;;7.27;;
14688;SDS011;7432;48.728;9.154;2023-07-20T05:04:07;8.57;;;7.97;;
14688;SDS011;7432;48.728;9.154;2023-07-20T05:06:34;9.50;;;8.53;;
14688;SDS011;7432;48.728;9.154;2023-07-20T05:09:00;8.70;;;8.10;;
14688;SDS011;7432;48.728;9.154;2023-07-20T05:11:27;8.77;;;8.17;;
14688;SDS011;7432;48.728;9.154;2023-07-20T05:13:53;9.17;;;8.57;;
14688;SDS011;7432;48.728;9.154;2023-07-20T05:16:21;8.33;;;7.73;;
14688;SDS011;7432;48.728;9.154;2023-07-20T05:18:47;8.93;;;8.33;;
14688;SDS011;7432;48.728;9.154;2023-07-20T05:21:14;8.97;;;8.37;;
14688;SDS011;7432;48.728;9.154;2023-07-20T05:23:40;10.47;;;8.20;;
14688;SDS011;7432;48.728;9.154;2023-07-20T05:26:06;8.77;;;8.17;;
14688;SDS011;7432;48.728;9.154;2023-07-20T05:28:34;8.87;;;8.17;;
14688;SDS011;7432;48.728;9.154;2023-07-20T05:31:02;9.10;;;8.50;;
14688;SDS011;7432;48.728;9.154;2023-07-20T05:33:30;9.43;;;8.53;;
14688;SDS011;7432;48.728;9.154;2023-07-20T05:35:56;8.43;;;7.83;;
14688;SDS011;7432;48.728;9.154;2023-07-20T05:38:22;8.47;;;7.77;;
14688;SDS011;7432;48.728;9.154;2023-07-20T05:40:49;9.10;;;8.40;;
14688;SDS011;7432;48.728;9.154;2023-07-20T05:43:15;8.80;;;8.10;;
14688;SDS011;7432;48.728;9.154;2023-07-20T05:45:41;8.57;;;7.80;;
14688;SDS011;7432;48.728;9.154;2023-07-20T05:48:08;9.47;;;8.77;;
14688;SDS011;7432;48.728;9.154;2023-07-20T05:50:37;8.73;;;7.75;;
14688;SDS011;7432;48.728;9.154;2023-07-20T05:53:03;8.95;;;8.25;;
14688;SDS011;7432;48.728;9.154;2023-07-20T05:55:31;8.83;;;8.00;;
14688;SDS011;7432;48.728;9.154;2023-07-20T05:57:58;9.00;;;8.40;;
14688;SDS011;7432;48.728;9.154;2023-07-20T06:00:24;8.77;;;8.10;;
14688;SDS011;7432;48.728;9.154;2023-07-20T06:02:51;9.35;;;8.65;;
14688;SDS011;7432;48.728;9.154;2023-07-20T06:05:18;9.02;;;8.43;;
14688;SDS011;7432;48.728;9.154;2023-07-20T06:07:46;8.93;;;8.05;;
14688;SDS011;7432;48.728;9.154;2023-07-20T06:10:13;9.50;;;8.70;;
14688;SDS011;7432;48.728;9.154;2023-07-20T06:12:39;9.00;;;8.20;;
14688;SDS011;7432;48.728;9.154;2023-07-20T06:15:09;8.15;;;7.65;;
14688;SDS011;7432;48.728;9.154;2023-07-20T06:17:50;8.93;;;8.43;;
14688;SDS011;7432;48.728;9.154;2023-07-20T06:20:17;9.00;;;8.23;;
14688;SDS011;7432;48.728;9.154;2023-07-20T06:22:44;9.10;;;8.47;;
14688;SDS011;7432;48.728;9.154;2023-07-20T06:25:12;9.05;;;8.38;;
14688;SDS011;7432;48.728;9.154;2023-07-20T06:27:38;9.00;;;8.40;;
14688;SDS011;7432;48.728;9.154;2023-07-20T06:30:05;8.88;;;8.18;;
14688;SDS011;7432;48.728;9.154;2023-07-20T06:32:32;9.15;;;8.27;;
14688;SDS011;7432;48.728;9.154;2023-07-20T06:34:58;9.27;;;8.48;;
14688;SDS011;7432;48.728;9.154;2023-07-20T06:37:25;7.72;;;7.13;;
14688;SDS011;7432;48.728;9.154;2023-07-20T06:39:51;9.25;;;8.55;;
14688;SDS011;7432;48.728;9.154;2023-07-20T06:42:19;8.80;;;8.05;;
14688;SDS011;7432;48.728;9.154;2023-07-20T06:44:45;9.20;;;8.60;;
14688;SDS011;7432;48.728;9.154;2023-07-20T06:47:12;8.80;;;8.10;;
14688;SDS011;7432;48.728;9.154;2023-07-20T06:49:38;12.50;;;9.30;;
14688;SDS011;7432;48.728;9.154;2023-07-20T06:52:05;9.38;;;8.60;;
14688;SDS011;7432;48.728;9.154;2023-07-20T06:54:32;9.38;;;8.43;;
14688;SDS011;7432;48.728;9.154;2023-07-20T06:56:59;8.63;;;8.02;;
14688;SDS011;7432;48.728;9.154;2023-07-20T06:59:27;8.60;;;7.80;;
14688;SDS011;7432;48.728;9.154;2023-07-20T07:01:53;8.80;;;8.10;;
14688;SDS011;7432;48.728;9.154;2023-07-20T07:04:19;8.40;;;7.80;;
14688;SDS011;7432;48.728;9.154;2023-07-20T07:06:46;8.30;;;7.70;;
14688;SDS011;7432;48.728;9.154;2023-07-20T07:09:13;9.07;;;8.02;;
14688;SDS011;7432;48.728;9.154;2023-07-20T07:11:39;9.30;;;8.35;;
14688;SDS011;7432;48.728;9.154;2023-07-20T07:14:05;9.02;;;8.32;;
14688;SDS011;7432;48.728;9.154;2023-07-20T07:16:33;9.60;;;8.80;;
14688;SDS011;7432;48.728;9.154;2023-07-20T07:18:59;9.68;;;8.98;;
14688;SDS011;7432;48.728;9.154;2023-07-20T07:21:26;10.10;;;8.90;;
14688;SDS011;7432;48.728;9.154;2023-07-20T07:23:52;9.82;;;9.20;;
14688;SDS011;7432;48.728;9.154;2023-07-20T07:26:22;11.07;;;9.23;;
14688;SDS011;7432;48.728;9.154;2023-07-20T07:28:48;10.00;;;9.20;;
14688;SDS011;7432;48.728;9.154;2023-07-20T07:31:15;9.25;;;8.65;;
14688;SDS011;7432;48.728;9.154;2023-07-20T07:33:43;9.20;;;8.60;;
14688;SDS011;7432;48.728;9.154;2023-07-20T07:36:10;9.07;;;8.52;;
14688;SDS011;7432;48.728;9.154;2023-07-20T07:38:36;8.55;;;8.05;;
14688;SDS011;7432;48.728;9.154;2023-07-20T07:41:03;8.52;;;7.93;;
14688;SDS011;7432;48.728;9.154;2023-07-20T07:43:29;8.93;;;8.25;;
14688;SDS011;7432;48.728;9.154;2023-07-20T07:45:56;9.25;;;8.55;;
14688;SDS011;7432;48.728;9.154;2023-07-20T07:48:22;8.77;;;8.07;;
14688;SDS011;7432;48.728;9.154;2023-07-20T07:50:51;9.57;;;8.75;;
14688;SDS011;7432;48.728;9.154;2023-07-20T07:53:18;9.48;;;8.70;;
14688;SDS011;7432;48.728;9.154;2023-07-20T07:55:45;9.68;;;8.93;;
14688;SDS011;7432;48.728;9.154;2023-07-20T07:58:11;9.82;;;9.05;;
14688;SDS011;7432;48.728;9.154;2023-07-20T08:00:38;9.40;;;8.82;;
14688;SDS011;7432;48.728;9.154;2023-07-20T08:03:05;10.00;;;9.23;;
14688;SDS011;7432;48.728;9.154;2023-07-20T08:05:33;10.35;;;9.65;;
14688;SDS011;7432;48.728;9.154;2023-07-20T08:08:01;10.18;;;9.48;;
14688;SDS011;7432;48.728;9.154;2023-07-20T08:10:28;10.43;;;9.40;;
14688;SDS011;7432;48.728;9.154;2023-07-20T08:12:55;10.07;;;9.38;;
14688;SDS011;7432;48.728;9.154;2023-07-20T08:15:21;10.73;;;9.90;;
14688;SDS011;7432;48.728;9.154;2023-07-20T08:17:48;10.98;;;9.35;;
14688;SDS011;7432;48.728;9.154;2023-07-20T08:20:16;10.73;;;10.02;;
14688;SDS011;7432;48.728;9.154;2023-07-20T08:22:43;9.70;;;9.07;;
14688;SDS011;7432;48.728;9.154;2023-07-20T08:25:11;11.20;;;10.30;;
14688;SDS011;7432;48.728;9.154;2023-07-20T08:27:37;10.95;;;10.05;;
14688;SDS011;7432;48.728;9.154;2023-07-20T08:30:04;14.23;;;12.82;;
14688;SDS011;7432;48.728;9.154;2023-07-20T08:32:32;12.20;;;11.20;;
14688;SDS011;7432;48.728;9.154;2023-07-20T08:34:58;11.13;;;10.20;;
14688;SDS011;7432;48.728;9.154;2023-07-20T08:37:25;11.48;;;10.60;;
14688;SDS011;7432;48.728;9.154;2023-07-20T08:39:51;11.68;;;10.45;;
14688;SDS011;7432;48.728;9.154;2023-07-20T08:42:19;10.32;;;9.50;;
14688;SDS011;7432;48.728;9.154;2023-07-20T08:44:46;10.38;;;9.68;;
14688;SDS011;7432;48.728;9.154;2023-07-20T08:47:15;10.68;;;10.00;;
14688;SDS011;7432;48.728;9.154;2023-07-20T08:49:42;11.35;;;10.65;;
14688;SDS011;7432;48.728;9.154;2023-07-20T08:52:09;11.30;;;10.30;;
14688;SDS011;7432;48.728;9.154;2023-07-20T08:54:36;10.57;;;9.80;;
14688;SDS011;7432;48.728;9.154;2023-07-20T08:57:03;10.25;;;9.55;;
14688;SDS011;7432;48.728;9.154;2023-07-20T08:59:31;11.02;;;9.90;;
14688;SDS011;7432;48.728;9.154;2023-07-20T09:01:58;9.88;;;9.18;;
14688;SDS011;7432;48.728;9.154;2023-07-20T09:04:25;10.02;;;9.20;;
14688;SDS011;7432;48.728;9.154;2023-07-20T09:06:52;9.63;;;9.13;;
14688;SDS011;7432;48.728;9.154;2023-07-20T09:09:19;9.25;;;8.65;;
14688;SDS011;7432;48.728;9.154;2023-07-20T09:11:47;9.95;;;9.25;;
14688;SDS011;7432;48.728;9.154;2023-07-20T09:14:12;9.73;;;9.13;;
14688;SDS011;7432;48.728;9.154;2023-07-20T09:16:47;9.00;;;8.40;;
14688;SDS011;7432;48.728;9.154;2023-07-20T09:19:15;9.55;;;8.85;;
14688;SDS011;7432;48.728;9.154;2023-07-20T09:21:43;9.45;;;8.85;;
14688;SDS011;7432;48.728;9.154;2023-07-20T09:24:10;9.73;;;9.00;;
14688;SDS011;7432;48.728;9.154;2023-07-20T09:26:40;9.75;;;9.15;;
14688;SDS011;7432;48.728;9.154;2023-07-20T09:29:07;9.68;;;8.98;;
14688;SDS011;7432;48.728;9.154;2023-07-20T09:31:34;9.05;;;8.55;;
14688;SDS011;7432;48.728;9.154;2023-07-20T09:34:01;8.70;;;8.30;;
14688;SDS011;7432;48.728;9.154;2023-07-20T09:36:28;10.05;;;9.13;;
14688;SDS011;7432;48.728;9.154;2023-07-20T09:38:56;9.95;;;9.32;;
14688;SDS011;7432;48.728;9.154;2023-07-20T09:41:24;9.60;;;9.00;;
14688;SDS011;7432;48.728;9.154;2023-07-20T09:43:51;9.00;;;8.30;;
14688;SDS011;7432;48.728;9.154;2023-07-20T09:46:19;9.15;;;8.65;;
14688;SDS011;7432;48.728;9.154;2023-07-20T09:48:51;8.93;;;8.43;;
14688;SDS011;7432;48.728;9.154;2023-07-20T09:51:19;9.50;;;8.73;;
14688;SDS011;7432;48.728;9.154;2023-07-20T09:53:47;8.82;;;8.23;;
14688;SDS011;7432;48.728;9.154;2023-07-20T09:56:15;8.60;;;7.72;;
14688;SDS011;7432;48.728;9.154;2023-07-20T09:58:43;8.50;;;7.90;;
14688;SDS011;7432;48.728;9.154;2023-07-20T10:01:11;8.48;;;7.90;;
14688;SDS011;7432;48.728;9.154;2023-07-20T10:03:41;8.63;;;8.23;;
14688;SDS011;7432;48.728;9.154;2023-07-20T10:06:13;9.30;;;8.80;;
14688;SDS011;7432;48.728;9.154;2023-07-20T10:08:45;9.32;;;8.70;;
14688;SDS011;7432;48.728;9.154;2023-07-20T10:11:15;8.50;;;8.00;;
14688;SDS011;7432;48.728;9.154;2023-07-20T10:13:42;8.15;;;7.65;;
14688;SDS011;7432;48.728;9.154;2023-07-20T10:16:11;8.73;;;8.23;;
14688;SDS011;7432;48.728;9.154;2023-07-20T10:18:41;9.43;;;8.57;;
14688;SDS011;7432;48.728;9.154;2023-07-20T10:21:14;9.15;;;8.50;;
14688;SDS011;7432;48.728;9.154;2023-07-20T10:23:43;9.43;;;8.82;;
14688;SDS011;7432;48.728;9.154;2023-07-20T10:26:12;9.05;;;8.55;;
14688;SDS011;7432;48.728;9.154;2023-07-20T10:28:39;8.82;;;8.35;;
14688;SDS011;7432;48.728;9.154;2023-07-20T10:31:07;9.52;;;8.82;;
14688;SDS011;7432;48.728;9.154;2023-07-20T10:33:34;9.07;;;8.57;;
14688;SDS011;7432;48.728;9.154;2023-07-20T10:36:01;8.73;;;8.23;;
14688;SDS011;7432;48.728;9.154;2023-07-20T10:38:39;9.63;;;9.02;;
14688;SDS011;7432;48.728;9.154;2023-07-20T10:41:17;8.63;;;8.20;;
14688;SDS011;7432;48.728;9.154;2023-07-20T10:43:44;8.85;;;8.35;;
14688;SDS011;7432;48.728;9.154;2023-07-20T10:46:12;8.88;;;8.38;;
14688;SDS011;7432;48.728;9.154;2023-07-20T10:51:27;9.25;;;8.65;;
14688;SDS011;7432;48.728;9.154;2023-07-20T10:53:54;9.25;;;8.68;;
14688;SDS011;7432;48.728;9.154;2023-07-20T10:56:25;9.60;;;8.80;;
14688;SDS011;7432;48.728;9.154;2023-07-20T10:58:55;9.15;;;8.63;;
14688;SDS011;7432;48.728;9.154;2023-07-20T11:01:27;9.90;;;9.30;;
14688;SDS011;7432;48.728;9.154;2023-07-20T11:03:56;9.13;;;8.63;;
14688;SDS011;7432;48.728;9.154;2023-07-20T11:06:31;9.23;;;8.73;;
14688;SDS011;7432;48.728;9.154;2023-07-20T11:09:04;8.75;;;8.25;;
14688;SDS011;7432;48.728;9.154;2023-07-20T11:11:34;8.98;;;8.38;;
14688;SDS011;7432;48.728;9.154;2023-07-20T11:14:02;9.60;;;8.98;;
14688;SDS011;7432;48.728;9.154;2023-07-20T11:16:37;10.40;;;9.70;;
14688;SDS011;7432;48.728;9.154;2023-07-20T11:19:06;9.30;;;8.80;;
14688;SDS011;7432;48.728;9.154;2023-07-20T11:21:41;9.20;;;8.60;;
14688;SDS011;7432;48.728;9.154;2023-07-20T11:24:08;9.20;;;8.70;;
14688;SDS011;7432;48.728;9.154;2023-07-20T11:26:43;10.20;;;9.60;;
14688;SDS011;7432;48.728;9.154;2023-07-20T11:29:10;8.85;;;8.30;;
14688;SDS011;7432;48.728;9.154;2023-07-20T11:31:37;9.20;;;8.60;;
14688;SDS011;7432;48.728;9.154;2023-07-20T11:34:04;8.85;;;8.35;;
14688;SDS011;7432;48.728;9.154;2023-07-20T11:36:31;9.23;;;8.73;;
14688;SDS011;7432;48.728;9.154;2023-07-20T11:38:58;8.77;;;8.18;;
14688;SDS011;7432;48.728;9.154;2023-07-20T11:41:25;9.10;;;8.50;;
14688;SDS011;7432;48.728;9.154;2023-07-20T11:43:53;8.85;;;8.35;;
14688;SDS011;7432;48.728;9.154;2023-07-20T11:46:20;8.57;;;8.07;;
14688;SDS011;7432;48.728;9.154;2023-07-20T11:48:46;8.85;;;8.35;;
14688;SDS011;7432;48.728;9.154;2023-07-20T11:51:13;9.02;;;8.32;;
14688;SDS011;7432;48.728;9.154;2023-07-20T11:53:40;9.05;;;8.45;;
14688;SDS011;7432;48.728;9.154;2023-07-20T11:56:07;9.30;;;8.80;;
14688;SDS011;7432;48.728;9.154;2023-07-20T11:58:34;9.82;;;9.02;;
14688;SDS011;7432;48.728;9.154;2023-07-20T12:01:01;9.32;;;8.82;;
14688;SDS011;7432;48.728;9.154;2023-07-20T12:03:28;9.50;;;8.90;;
14688;SDS011;7432;48.728;9.154;2023-07-20T12:05:55;9.63;;;9.13;;
14688;SDS011;7432;48.728;9.154;2023-07-20T12:08:22;10.13;;;9.52;;
14688;SDS011;7432;48.728;9.154;2023-07-20T12:10:49;9.82;;;9.30;;
14688;SDS011;7432;48.728;9.154;2023-07-20T12:13:15;9.00;;;8.50;;
14688;SDS011;7432;48.728;9.154;2023-07-20T12:15:42;9.65;;;9.15;;
14688;SDS011;7432;48.728;9.154;2023-07-20T12:18:11;9.57;;;9.07;;
14688;SDS011;7432;48.728;9.154;2023-07-20T12:20:37;10.70;;;10.10;;
14688;SDS011;7432;48.728;9.154;2023-07-20T12:23:05;10.00;;;9.40;;
14688;SDS011;7432;48.728;9.154;2023-07-20T12:25:37;10.02;;;9.40;;
14688;SDS011;7432;48.728;9.154;2023-07-20T12:28:06;10.43;;;9.82;;
14688;SDS011;7432;48.728;9.154;2023-07-20T12:30:33;10.45;;;9.65;;
14688;SDS011;7432;48.728;9.154;2023-07-20T12:32:59;9.73;;;9.10;;
14688;SDS011;7432;48.728;9.154;2023-07-20T12:35:27;10.73;;;9.80;;
14688;SDS011;7432;48.728;9.154;2023-07-20T12:37:53;10.43;;;9.93;;
14688;SDS011;7432;48.728;9.154;2023-07-20T12:40:20;10.27;;;9.68;;
14688;SDS011;7432;48.728;9.154;2023-07-20T12:42:46;9.50;;;9.00;;
14688;SDS011;7432;48.728;9.154;2023-07-20T12:45:13;10.23;;;9.52;;
14688;SDS011;7432;48.728;9.154;2023-07-20T12:47:39;9.57;;;8.90;;
14688;SDS011;7432;48.728;9.154;2023-07-20T12:50:07;10.20;;;9.70;;
14688;SDS011;7432;48.728;9.154;2023-07-20T12:52:36;10.50;;;9.90;;
14688;SDS011;7432;48.728;9.154;2023-07-20T12:55:04;10.20;;;9.63;;
14688;SDS011;7432;48.728;9.154;2023-07-20T12:57:32;10.30;;;9.60;;
14688;SDS011;7432;48.728;9.154;2023-07-20T12:59:59;10.35;;;9.65;;
14688;SDS011;7432;48.728;9.154;2023-07-20T13:02:25;10.40;;;9.57;;
14688;SDS011;7432;48.728;9.154;2023-07-20T13:04:52;9.98;;;9.27;;
14688;SDS011;7432;48.728;9.154;2023-07-20T13:07:22;11.07;;;10.07;;
14688;SDS011;7432;48.728;9.154;2023-07-20T13:09:57;18.27;;;9.00;;
14688;SDS011;7432;48.728;9.154;2023-07-20T13:12:25;10.30;;;9.50;;
14688;SDS011;7432;48.728;9.154;2023-07-20T13:14:51;9.75;;;9.25;;
14688;SDS011;7432;48.728;9.154;2023-07-20T13:17:17;9.60;;;9.00;;
14688;SDS011;7432;48.728;9.154;2023-07-20T13:19:44;8.68;;;8.18;;
14688;SDS011;7432;48.728;9.154;2023-07-20T13:22:11;9.43;;;8.90;;
14688;SDS011;7432;48.728;9.154;2023-07-20T13:24:38;9.02;;;8.52;;
14688;SDS011;7432;48.728;9.154;2023-07-20T13:27:06;9.40;;;8.75;;
14688;SDS011;7432;48.728;9.154;2023-07-20T13:29:33;9.52;;;8.98;;
14688;SDS011;7432;48.728;9.154;2023-07-20T13:31:59;9.70;;;9.10;;
14688;SDS011;7432;48.728;9.154;2023-07-20T13:34:26;9.65;;;9.00;;
14688;SDS011;7432;48.728;9.154;2023-07-20T13:36:52;9.25;;;8.75;;
14688;SDS011;7432;48.728;9.154;2023-07-20T13:39:19;9.07;;;8.48;;
14688;SDS011;7432;48.728;9.154;2023-07-20T13:41:49;9.75;;;9.15;;
14688;SDS011;7432;48.728;9.154;2023-07-20T13:44:17;8.90;;;8.30;;
14688;SDS011;7432;48.728;9.154;2023-07-20T13:46:43;10.63;;;8.32;;
14688;SDS011;7432;48.728;9.154;2023-07-20T13:49:09;9.45;;;8.82;;
14688;SDS011;7432;48.728;9.154;2023-07-20T13:51:36;9.30;;;8.80;;
14688;SDS011;7432;48.728;9.154;2023-07-20T13:54:02;9.40;;;8.80;;
14688;SDS011;7432;48.728;9.154;2023-07-20T13:56:28;9.23;;;8.52;;
14688;SDS011;7432;48.728;9.154;2023-07-20T13:58:55;9.30;;;8.80;;
14688;SDS011;7432;48.728;9.154;2023-07-20T14:01:23;9.73;;;9.10;;
14688;SDS011;7432;48.728;9.154;2023-07-20T14:03:50;9.40;;;8.80;;
14688;SDS011;7432;48.728;9.154;2023-07-20T14:06:16;9.40;;;8.90;;
14688;SDS011;7432;48.728;9.154;2023-07-20T14:08:43;9.50;;;8.90;;
14688;SDS011;7432;48.728;9.154;2023-07-20T14:11:11;9.73;;;9.02;;
14688;SDS011;7432;48.728;9.154;2023-07-20T14:13:37;9.40;;;8.80;;
14688;SDS011;7432;48.728;9.154;2023-07-20T14:16:04;9.55;;;8.93;;
14688;SDS011;7432;48.728;9.154;2023-07-20T14:18:32;8.50;;;8.07;;
14688;SDS011;7432;48.728;9.154;2023-07-20T14:20:58;9.77;;;9.18;;
14688;SDS011;7432;48.728;9.154;2023-07-20T14:23:27;9.45;;;8.80;;
14688;SDS011;7432;48.728;9.154;2023-07-20T14:25:53;9.15;;;8.52;;
14688;SDS011;7432;48.728;9.154;2023-07-20T14:28:20;9.57;;;8.82;;
14688;SDS011;7432;48.728;9.154;2023-07-20T14:30:46;8.90;;;8.30;;
14688;SDS011;7432;48.728;9.154;2023-07-20T14:33:12;9.50;;;8.90;;
14688;SDS011;7432;48.728;9.154;2023-07-20T14:35:40;9.30;;;8.77;;
14688;SDS011;7432;48.728;9.154;2023-07-20T14:38:07;9.93;;;9.30;;
14688;SDS011;7432;48.728;9.154;2023-07-20T14:40:33;9.90;;;9.30;;
14688;SDS011;7432;48.728;9.154;2023-07-20T14:42:59;10.13;;;9.20;;
14688;SDS011;7432;48.728;9.154;2023-07-20T14:45:26;9.13;;;8.57;;
14688;SDS011;7432;48.728;9.154;2023-07-20T14:47:53;9.27;;;8.77;;
14688;SDS011;7432;48.728;9.154;2023-07-20T14:50:19;9.40;;;8.90;;
14688;SDS011;7432;48.728;9.154;2023-07-20T14:52:47;9.05;;;8.57;;
14688;SDS011;7432;48.728;9.154;2023-07-20T14:55:14;9.43;;;8.57;;
14688;SDS011;7432;48.728;9.154;2023-07-20T14:57:40;9.23;;;8.63;;
14688;SDS011;7432;48.728;9.154;2023-07-20T15:00:07;9.20;;;8.50;;
14688;SDS011;7432;48.728;9.154;2023-07-20T15:02:35;8.82;;;8.27;;
14688;SDS011;7432;48.728;9.154;2023-07-20T15:05:02;8.43;;;8.00;;
14688;SDS011;7432;48.728;9.154;2023-07-20T15:07:29;9.02;;;8.45;;